DAL2002 KDEN-KLAX
Flight info
| Callsign | DAL2002 |
|---|---|
| Flight time | 2h 9m |
| Altitude | 38000 |
| Route | BAYLR6 TEHRU JASSE Q90 DNERO ANJLL4 |
| Aircraft | A319/M-SDE3FGHIRWY/LB1 |
Departure
| Time | 2026-04-21 22:53 |
|---|---|
| Airport | Denver International Airport (KDEN) |
Arrival
| Time | 2026-04-22 01:02 |
|---|---|
| Airport | Los Angeles International Airport (KLAX) |
| Time | Latitude | Longitude | Altitude | Speed | Heading |
|---|---|---|---|---|---|
| 2026-04-21 22:38 | 39.85335 | -104.67096 | 5383 ft | 0 kts | 25° |
| 2026-04-21 22:45 | 39.85317 | -104.67106 | 5381 ft | 4 kts | 20° |
| 2026-04-21 22:45 | 39.85293 | -104.67121 | 5383 ft | 4 kts | 40° |
| 2026-04-21 22:46 | 39.85277 | -104.67147 | 5380 ft | 4 kts | 79° |
| 2026-04-21 22:46 | 39.85276 | -104.67164 | 5383 ft | 1 kts | 90° |
| 2026-04-21 22:46 | 39.85276 | -104.67165 | 5383 ft | 0 kts | 90° |
| 2026-04-21 22:48 | 39.85276 | -104.67146 | 5383 ft | 7 kts | 90° |
| 2026-04-21 22:48 | 39.85276 | -104.67073 | 5383 ft | 9 kts | 90° |
| 2026-04-21 22:48 | 39.85276 | -104.66991 | 5383 ft | 9 kts | 90° |
| 2026-04-21 22:49 | 39.85275 | -104.66900 | 5383 ft | 11 kts | 91° |
| 2026-04-21 22:49 | 39.85274 | -104.66794 | 5383 ft | 12 kts | 90° |
| 2026-04-21 22:49 | 39.85273 | -104.66684 | 5381 ft | 12 kts | 90° |
| 2026-04-21 22:49 | 39.85274 | -104.66586 | 5385 ft | 10 kts | 80° |
| 2026-04-21 22:50 | 39.85295 | -104.66490 | 5389 ft | 11 kts | 90° |
| 2026-04-21 22:50 | 39.85295 | -104.66407 | 5392 ft | 7 kts | 90° |
| 2026-04-21 22:50 | 39.85295 | -104.66331 | 5395 ft | 9 kts | 90° |
| 2026-04-21 22:50 | 39.85312 | -104.66262 | 5394 ft | 11 kts | 38° |
| 2026-04-21 22:51 | 39.85427 | -104.66236 | 5393 ft | 21 kts | 359° |
| 2026-04-21 22:51 | 39.85574 | -104.66237 | 5393 ft | 22 kts | 0° |
| 2026-04-21 22:51 | 39.85734 | -104.66234 | 5389 ft | 24 kts | 0° |
| 2026-04-21 22:51 | 39.85905 | -104.66232 | 5388 ft | 25 kts | 0° |
| 2026-04-21 22:52 | 39.86067 | -104.66229 | 5383 ft | 16 kts | 6° |
| 2026-04-21 22:52 | 39.86107 | -104.66113 | 5385 ft | 15 kts | 87° |
| 2026-04-21 22:52 | 39.86065 | -104.66015 | 5386 ft | 12 kts | 175° |
| 2026-04-21 22:52 | 39.85977 | -104.66018 | 5388 ft | 19 kts | 180° |
| 2026-04-21 22:53 | 39.85607 | -104.66021 | 5395 ft | 85 kts | 181° |
| 2026-04-21 22:53 | 39.84830 | -104.66030 | 5408 ft | 137 kts | 180° |
| 2026-04-21 22:53 | 39.83761 | -104.66044 | 5689 ft | 153 kts | 176° |
| 2026-04-21 22:53 | 39.82692 | -104.66039 | 6299 ft | 157 kts | 178° |
| 2026-04-21 22:54 | 39.81598 | -104.66035 | 6714 ft | 159 kts | 176° |
| 2026-04-21 22:54 | 39.80473 | -104.66218 | 7115 ft | 170 kts | 194° |
| 2026-04-21 22:54 | 39.79375 | -104.67060 | 7314 ft | 199 kts | 218° |
| 2026-04-21 22:54 | 39.78298 | -104.68356 | 7555 ft | 223 kts | 218° |
| 2026-04-21 22:55 | 39.77514 | -104.69292 | 7705 ft | 238 kts | 219° |
| 2026-04-21 22:55 | 39.76254 | -104.70999 | 7886 ft | 266 kts | 236° |
| 2026-04-21 22:55 | 39.75765 | -104.73447 | 8200 ft | 293 kts | 269° |
| 2026-04-21 22:55 | 39.75832 | -104.75186 | 8624 ft | 299 kts | 273° |
| 2026-04-21 22:56 | 39.76096 | -104.77973 | 9420 ft | 305 kts | 276° |
| 2026-04-21 22:56 | 39.76422 | -104.80651 | 9865 ft | 312 kts | 277° |
| 2026-04-21 22:56 | 39.76772 | -104.83478 | 9980 ft | 320 kts | 277° |
| 2026-04-21 22:56 | 39.77115 | -104.86385 | 9989 ft | 334 kts | 277° |
| 2026-04-21 22:57 | 39.77428 | -104.89381 | 9964 ft | 335 kts | 272° |
| 2026-04-21 22:57 | 39.77112 | -104.92350 | 10042 ft | 335 kts | 249° |
| 2026-04-21 22:57 | 39.76320 | -104.95212 | 10790 ft | 337 kts | 249° |
| 2026-04-21 22:57 | 39.75653 | -104.98100 | 11629 ft | 339 kts | 252° |
| 2026-04-21 22:58 | 39.75040 | -105.01066 | 12525 ft | 339 kts | 252° |
| 2026-04-21 22:58 | 39.74330 | -105.03985 | 13401 ft | 339 kts | 247° |
| 2026-04-21 22:58 | 39.73466 | -105.06861 | 14232 ft | 340 kts | 246° |
| 2026-04-21 22:58 | 39.72577 | -105.09689 | 15026 ft | 341 kts | 245° |
| 2026-04-21 22:59 | 39.71655 | -105.12532 | 15779 ft | 343 kts | 245° |
| 2026-04-21 22:59 | 39.70709 | -105.15397 | 16540 ft | 346 kts | 245° |
| 2026-04-21 22:59 | 39.69755 | -105.18263 | 17309 ft | 347 kts | 245° |
| 2026-04-21 22:59 | 39.68805 | -105.21111 | 18028 ft | 350 kts | 245° |
| 2026-04-21 23:00 | 39.67836 | -105.24021 | 18715 ft | 352 kts | 245° |
| 2026-04-21 23:00 | 39.66864 | -105.26960 | 19356 ft | 355 kts | 245° |
| 2026-04-21 23:00 | 39.66026 | -105.29499 | 19923 ft | 357 kts | 246° |
| 2026-04-21 23:00 | 39.65077 | -105.32370 | 20482 ft | 362 kts | 246° |
| 2026-04-21 23:01 | 39.64082 | -105.35382 | 21080 ft | 365 kts | 246° |
| 2026-04-21 23:01 | 39.63080 | -105.38424 | 21700 ft | 369 kts | 246° |
| 2026-04-21 23:01 | 39.62073 | -105.41496 | 22340 ft | 371 kts | 246° |
| 2026-04-21 23:01 | 39.61073 | -105.44551 | 22796 ft | 374 kts | 246° |
| 2026-04-21 23:02 | 39.60053 | -105.47649 | 22904 ft | 373 kts | 246° |
| 2026-04-21 23:02 | 39.59034 | -105.50736 | 22954 ft | 372 kts | 246° |
| 2026-04-21 23:02 | 39.58010 | -105.53821 | 22952 ft | 373 kts | 246° |
| 2026-04-21 23:02 | 39.56985 | -105.56895 | 22954 ft | 372 kts | 246° |
| 2026-04-21 23:03 | 39.55953 | -105.59974 | 22952 ft | 372 kts | 246° |
| 2026-04-21 23:03 | 39.54938 | -105.63055 | 22955 ft | 373 kts | 247° |
| 2026-04-21 23:03 | 39.54012 | -105.66189 | 22964 ft | 372 kts | 249° |
| 2026-04-21 23:03 | 39.53145 | -105.69325 | 23027 ft | 382 kts | 250° |
| 2026-04-21 23:04 | 39.52267 | -105.72621 | 23633 ft | 387 kts | 250° |
| 2026-04-21 23:04 | 39.51396 | -105.75917 | 24244 ft | 388 kts | 250° |
| 2026-04-21 23:04 | 39.50509 | -105.79230 | 24792 ft | 390 kts | 250° |
| 2026-04-21 23:04 | 39.49606 | -105.82545 | 25319 ft | 392 kts | 249° |
| 2026-04-21 23:05 | 39.48683 | -105.85878 | 25830 ft | 394 kts | 249° |
| 2026-04-21 23:05 | 39.47749 | -105.89225 | 26344 ft | 397 kts | 249° |
| 2026-04-21 23:05 | 39.46804 | -105.92589 | 26855 ft | 399 kts | 249° |
| 2026-04-21 23:05 | 39.45867 | -105.95923 | 27318 ft | 401 kts | 249° |
| 2026-04-21 23:06 | 39.44914 | -105.99323 | 27778 ft | 403 kts | 249° |
| 2026-04-21 23:06 | 39.43959 | -106.02738 | 28264 ft | 405 kts | 249° |
| 2026-04-21 23:06 | 39.42996 | -106.06175 | 28721 ft | 407 kts | 249° |
| 2026-04-21 23:06 | 39.42027 | -106.09626 | 29180 ft | 409 kts | 249° |
| 2026-04-21 23:07 | 39.41047 | -106.13092 | 29642 ft | 412 kts | 249° |
| 2026-04-21 23:07 | 39.40062 | -106.16583 | 30094 ft | 414 kts | 249° |
| 2026-04-21 23:07 | 39.39087 | -106.20039 | 30463 ft | 415 kts | 249° |
| 2026-04-21 23:07 | 39.38096 | -106.23546 | 30798 ft | 417 kts | 249° |
| 2026-04-21 23:08 | 39.37098 | -106.27078 | 31352 ft | 420 kts | 249° |
| 2026-04-21 23:08 | 39.36095 | -106.30627 | 31720 ft | 422 kts | 249° |
| 2026-04-21 23:08 | 39.35084 | -106.34204 | 32076 ft | 425 kts | 249° |
| 2026-04-21 23:08 | 39.34067 | -106.37792 | 32423 ft | 426 kts | 249° |
| 2026-04-21 23:09 | 39.33042 | -106.41390 | 32757 ft | 428 kts | 249° |
| 2026-04-21 23:09 | 39.32011 | -106.44998 | 33198 ft | 428 kts | 249° |
| 2026-04-21 23:09 | 39.30988 | -106.48595 | 33685 ft | 426 kts | 249° |
| 2026-04-21 23:09 | 39.29966 | -106.52185 | 34156 ft | 425 kts | 249° |
| 2026-04-21 23:10 | 39.28960 | -106.55710 | 34543 ft | 424 kts | 249° |
| 2026-04-21 23:10 | 39.27944 | -106.59270 | 34836 ft | 422 kts | 248° |
| 2026-04-21 23:10 | 39.26926 | -106.62821 | 35199 ft | 422 kts | 248° |
| 2026-04-21 23:10 | 39.25903 | -106.66370 | 35532 ft | 422 kts | 248° |
| 2026-04-21 23:11 | 39.24866 | -106.69908 | 35881 ft | 421 kts | 245° |
| 2026-04-21 23:11 | 39.23530 | -106.73249 | 36271 ft | 418 kts | 236° |
| 2026-04-21 23:11 | 39.21850 | -106.76294 | 36605 ft | 416 kts | 232° |
| 2026-04-21 23:11 | 39.20117 | -106.79283 | 36968 ft | 415 kts | 232° |
| 2026-04-21 23:12 | 39.18413 | -106.82223 | 37317 ft | 414 kts | 232° |
| 2026-04-21 23:12 | 39.16692 | -106.85199 | 37633 ft | 414 kts | 231° |
| 2026-04-21 23:12 | 39.13268 | -106.91119 | 37915 ft | 409 kts | 231° |
| 2026-04-21 23:13 | 39.09891 | -106.96955 | 37919 ft | 405 kts | 231° |
| 2026-04-21 23:13 | 39.06523 | -107.02752 | 37917 ft | 404 kts | 231° |
| 2026-04-21 23:14 | 39.03180 | -107.08501 | 37921 ft | 403 kts | 231° |
| 2026-04-21 23:14 | 38.99819 | -107.14280 | 37954 ft | 404 kts | 231° |
| 2026-04-21 23:15 | 38.96446 | -107.20065 | 37952 ft | 404 kts | 231° |
| 2026-04-21 23:15 | 38.93073 | -107.25831 | 37958 ft | 404 kts | 231° |
| 2026-04-21 23:16 | 38.89696 | -107.31588 | 37978 ft | 404 kts | 231° |
| 2026-04-21 23:16 | 38.86347 | -107.37298 | 37962 ft | 403 kts | 231° |
| 2026-04-21 23:17 | 38.82964 | -107.43043 | 37965 ft | 403 kts | 231° |
| 2026-04-21 23:17 | 38.79580 | -107.48772 | 37957 ft | 403 kts | 231° |
| 2026-04-21 23:18 | 38.76204 | -107.54500 | 37968 ft | 402 kts | 231° |
| 2026-04-21 23:18 | 38.72854 | -107.60190 | 37963 ft | 402 kts | 231° |
| 2026-04-21 23:19 | 38.69479 | -107.65891 | 37948 ft | 402 kts | 230° |
| 2026-04-21 23:19 | 38.66100 | -107.71587 | 37938 ft | 402 kts | 230° |
| 2026-04-21 23:20 | 38.62711 | -107.77281 | 37938 ft | 402 kts | 231° |
| 2026-04-21 23:20 | 38.59348 | -107.82929 | 38102 ft | 402 kts | 231° |
| 2026-04-21 23:21 | 38.55963 | -107.88614 | 38113 ft | 402 kts | 231° |
| 2026-04-21 23:21 | 38.52575 | -107.94287 | 38111 ft | 402 kts | 230° |
| 2026-04-21 23:22 | 38.49187 | -107.99948 | 38106 ft | 401 kts | 231° |
| 2026-04-21 23:22 | 38.45797 | -108.05600 | 38078 ft | 401 kts | 231° |
| 2026-04-21 23:23 | 38.42437 | -108.11209 | 38055 ft | 401 kts | 230° |
| 2026-04-21 23:23 | 38.39048 | -108.16848 | 38060 ft | 400 kts | 230° |
| 2026-04-21 23:24 | 38.35652 | -108.22480 | 38007 ft | 401 kts | 230° |
| 2026-04-21 23:24 | 38.32242 | -108.28123 | 37975 ft | 401 kts | 230° |
| 2026-04-21 23:25 | 38.28865 | -108.33712 | 37976 ft | 401 kts | 230° |
| 2026-04-21 23:25 | 38.25466 | -108.39329 | 37973 ft | 401 kts | 230° |
| 2026-04-21 23:26 | 38.22061 | -108.44933 | 37972 ft | 400 kts | 230° |
| 2026-04-21 23:26 | 38.18659 | -108.50531 | 37972 ft | 400 kts | 230° |
| 2026-04-21 23:27 | 38.15261 | -108.56125 | 37980 ft | 399 kts | 230° |
| 2026-04-21 23:27 | 38.11880 | -108.61662 | 37964 ft | 399 kts | 230° |
| 2026-04-21 23:28 | 38.08476 | -108.67221 | 37965 ft | 399 kts | 230° |
| 2026-04-21 23:28 | 38.05066 | -108.72791 | 37966 ft | 399 kts | 230° |
| 2026-04-21 23:29 | 38.01665 | -108.78353 | 37976 ft | 399 kts | 230° |
| 2026-04-21 23:29 | 37.98261 | -108.83906 | 37974 ft | 398 kts | 230° |
| 2026-04-21 23:30 | 37.94864 | -108.89434 | 37970 ft | 397 kts | 230° |
| 2026-04-21 23:30 | 37.91489 | -108.94904 | 37972 ft | 397 kts | 230° |
| 2026-04-21 23:31 | 37.88092 | -109.00415 | 37967 ft | 397 kts | 230° |
| 2026-04-21 23:31 | 37.84696 | -109.05916 | 37966 ft | 397 kts | 230° |
| 2026-04-21 23:32 | 37.81292 | -109.11401 | 37971 ft | 396 kts | 230° |
| 2026-04-21 23:32 | 37.77910 | -109.16847 | 37989 ft | 396 kts | 231° |
| 2026-04-21 23:33 | 37.74488 | -109.22354 | 37999 ft | 396 kts | 231° |
| 2026-04-21 23:33 | 37.71087 | -109.27818 | 38025 ft | 396 kts | 231° |
| 2026-04-21 23:34 | 37.67709 | -109.33251 | 38053 ft | 396 kts | 231° |
| 2026-04-21 23:34 | 37.64281 | -109.38746 | 38087 ft | 396 kts | 231° |
| 2026-04-21 23:35 | 37.60895 | -109.44157 | 38089 ft | 396 kts | 231° |
| 2026-04-21 23:35 | 37.57477 | -109.49618 | 38088 ft | 397 kts | 232° |
| 2026-04-21 23:36 | 37.54050 | -109.55076 | 38088 ft | 397 kts | 232° |
| 2026-04-21 23:36 | 37.50614 | -109.60534 | 38064 ft | 398 kts | 232° |
| 2026-04-21 23:37 | 37.47173 | -109.65998 | 38028 ft | 398 kts | 232° |
| 2026-04-21 23:37 | 37.43736 | -109.71459 | 37873 ft | 398 kts | 232° |
| 2026-04-21 23:38 | 37.40314 | -109.76880 | 37869 ft | 399 kts | 232° |
| 2026-04-21 23:38 | 37.36852 | -109.82352 | 37876 ft | 400 kts | 232° |
| 2026-04-21 23:39 | 37.33381 | -109.87830 | 37877 ft | 401 kts | 232° |
| 2026-04-21 23:39 | 37.29907 | -109.93307 | 37870 ft | 401 kts | 232° |
| 2026-04-21 23:40 | 37.26420 | -109.98790 | 37870 ft | 402 kts | 232° |
| 2026-04-21 23:40 | 37.22957 | -110.04230 | 37891 ft | 402 kts | 232° |
| 2026-04-21 23:41 | 37.19463 | -110.09715 | 37885 ft | 402 kts | 232° |
| 2026-04-21 23:41 | 37.15966 | -110.15189 | 37895 ft | 402 kts | 233° |
| 2026-04-21 23:42 | 37.12465 | -110.20649 | 37879 ft | 401 kts | 233° |
| 2026-04-21 23:42 | 37.08976 | -110.26094 | 37884 ft | 400 kts | 233° |
| 2026-04-21 23:43 | 37.05487 | -110.31527 | 37896 ft | 400 kts | 233° |
| 2026-04-21 23:43 | 37.01997 | -110.36956 | 37896 ft | 400 kts | 233° |
| 2026-04-21 23:44 | 36.98503 | -110.42374 | 37895 ft | 400 kts | 233° |
| 2026-04-21 23:44 | 36.95036 | -110.47754 | 37898 ft | 400 kts | 233° |
| 2026-04-21 23:45 | 36.89806 | -110.55860 | 37914 ft | 398 kts | 233° |
| 2026-04-21 23:46 | 36.86324 | -110.61235 | 37912 ft | 398 kts | 232° |
| 2026-04-21 23:46 | 36.82835 | -110.66602 | 37910 ft | 398 kts | 232° |
| 2026-04-21 23:47 | 36.79346 | -110.71955 | 37905 ft | 398 kts | 232° |
| 2026-04-21 23:47 | 36.75857 | -110.77312 | 37901 ft | 397 kts | 232° |
| 2026-04-21 23:48 | 36.72376 | -110.82656 | 37909 ft | 397 kts | 232° |
| 2026-04-21 23:48 | 36.68880 | -110.88023 | 37900 ft | 396 kts | 232° |
| 2026-04-21 23:49 | 36.65369 | -110.93403 | 37897 ft | 395 kts | 232° |
| 2026-04-21 23:49 | 36.61897 | -110.98701 | 37897 ft | 395 kts | 232° |
| 2026-04-21 23:50 | 36.58444 | -111.03954 | 37887 ft | 394 kts | 232° |
| 2026-04-21 23:50 | 36.54970 | -111.09232 | 37895 ft | 394 kts | 232° |
| 2026-04-21 23:51 | 36.51498 | -111.14508 | 37899 ft | 394 kts | 231° |
| 2026-04-21 23:51 | 36.48020 | -111.19786 | 37888 ft | 395 kts | 231° |
| 2026-04-21 23:52 | 36.44537 | -111.25063 | 37883 ft | 395 kts | 231° |
| 2026-04-21 23:52 | 36.41053 | -111.30344 | 37888 ft | 396 kts | 231° |
| 2026-04-21 23:53 | 36.37556 | -111.35629 | 37887 ft | 396 kts | 231° |
| 2026-04-21 23:53 | 36.34055 | -111.40899 | 37896 ft | 396 kts | 231° |
| 2026-04-21 23:54 | 36.30551 | -111.46173 | 37895 ft | 396 kts | 231° |
| 2026-04-21 23:54 | 36.27044 | -111.51442 | 37895 ft | 396 kts | 231° |
| 2026-04-21 23:55 | 36.23538 | -111.56708 | 37918 ft | 396 kts | 231° |
| 2026-04-21 23:55 | 36.20030 | -111.61966 | 37917 ft | 396 kts | 231° |
| 2026-04-21 23:56 | 36.16517 | -111.67215 | 37901 ft | 396 kts | 231° |
| 2026-04-21 23:56 | 36.12995 | -111.72471 | 37892 ft | 397 kts | 231° |
| 2026-04-21 23:57 | 36.09466 | -111.77735 | 37916 ft | 398 kts | 231° |
| 2026-04-21 23:57 | 36.06423 | -111.83414 | 38036 ft | 397 kts | 246° |
| 2026-04-21 23:58 | 36.04400 | -111.89730 | 38083 ft | 394 kts | 248° |
| 2026-04-21 23:58 | 36.02393 | -111.96009 | 38131 ft | 391 kts | 248° |
| 2026-04-21 23:59 | 36.00719 | -112.01239 | 38161 ft | 391 kts | 247° |
| 2026-04-21 23:59 | 35.98727 | -112.07462 | 38178 ft | 389 kts | 248° |
| 2026-04-22 00:00 | 35.96733 | -112.13661 | 38187 ft | 388 kts | 247° |
| 2026-04-22 00:00 | 35.94749 | -112.19831 | 38189 ft | 386 kts | 247° |
| 2026-04-22 00:01 | 35.92755 | -112.26011 | 38178 ft | 384 kts | 247° |
| 2026-04-22 00:01 | 35.90773 | -112.32117 | 38142 ft | 383 kts | 247° |
| 2026-04-22 00:02 | 35.88796 | -112.38211 | 38104 ft | 382 kts | 247° |
| 2026-04-22 00:02 | 35.86823 | -112.44297 | 38069 ft | 382 kts | 247° |
| 2026-04-22 00:03 | 35.84854 | -112.50366 | 38000 ft | 380 kts | 246° |
| 2026-04-22 00:03 | 35.82904 | -112.56361 | 37996 ft | 378 kts | 246° |
| 2026-04-22 00:04 | 35.80931 | -112.62366 | 37987 ft | 378 kts | 246° |
| 2026-04-22 00:04 | 35.78968 | -112.68361 | 37985 ft | 377 kts | 246° |
| 2026-04-22 00:05 | 35.77012 | -112.74351 | 37977 ft | 377 kts | 246° |
| 2026-04-22 00:05 | 35.75055 | -112.80325 | 37993 ft | 376 kts | 246° |
| 2026-04-22 00:06 | 35.73091 | -112.86280 | 37986 ft | 375 kts | 246° |
| 2026-04-22 00:06 | 35.71130 | -112.92203 | 37981 ft | 373 kts | 246° |
| 2026-04-22 00:07 | 35.69184 | -112.98064 | 37965 ft | 372 kts | 246° |
| 2026-04-22 00:07 | 35.67228 | -113.03956 | 37962 ft | 372 kts | 246° |
| 2026-04-22 00:08 | 35.65279 | -113.09848 | 37937 ft | 372 kts | 246° |
| 2026-04-22 00:08 | 35.63332 | -113.15726 | 37945 ft | 371 kts | 246° |
| 2026-04-22 00:09 | 35.61377 | -113.21585 | 37944 ft | 370 kts | 246° |
| 2026-04-22 00:09 | 35.59419 | -113.27434 | 37921 ft | 369 kts | 246° |
| 2026-04-22 00:10 | 35.57464 | -113.33266 | 37920 ft | 369 kts | 246° |
| 2026-04-22 00:10 | 35.55508 | -113.39095 | 37895 ft | 369 kts | 246° |
| 2026-04-22 00:11 | 35.53554 | -113.44919 | 37901 ft | 369 kts | 245° |
| 2026-04-22 00:11 | 35.51606 | -113.50715 | 37876 ft | 370 kts | 245° |
| 2026-04-22 00:12 | 35.49640 | -113.56551 | 37873 ft | 370 kts | 245° |
| 2026-04-22 00:12 | 35.47667 | -113.62387 | 37867 ft | 370 kts | 245° |
| 2026-04-22 00:13 | 35.45691 | -113.68225 | 37892 ft | 371 kts | 245° |
| 2026-04-22 00:13 | 35.43710 | -113.74067 | 37921 ft | 371 kts | 245° |
| 2026-04-22 00:14 | 35.41732 | -113.79911 | 37967 ft | 370 kts | 245° |
| 2026-04-22 00:14 | 35.39752 | -113.85729 | 37985 ft | 369 kts | 245° |
| 2026-04-22 00:15 | 35.37767 | -113.91528 | 37993 ft | 368 kts | 245° |
| 2026-04-22 00:15 | 35.35795 | -113.97306 | 37998 ft | 368 kts | 245° |
| 2026-04-22 00:16 | 35.33823 | -114.03078 | 37994 ft | 367 kts | 245° |
| 2026-04-22 00:16 | 35.31858 | -114.08813 | 37999 ft | 367 kts | 245° |
| 2026-04-22 00:17 | 35.29876 | -114.14562 | 37968 ft | 366 kts | 245° |
| 2026-04-22 00:17 | 35.27896 | -114.20292 | 37944 ft | 365 kts | 245° |
| 2026-04-22 00:18 | 35.25942 | -114.25981 | 37891 ft | 355 kts | 245° |
| 2026-04-22 00:18 | 35.24050 | -114.31471 | 37865 ft | 348 kts | 245° |
| 2026-04-22 00:19 | 35.22168 | -114.36904 | 37832 ft | 347 kts | 245° |
| 2026-04-22 00:19 | 35.20283 | -114.42328 | 37832 ft | 345 kts | 245° |
| 2026-04-22 00:20 | 35.18405 | -114.47722 | 37831 ft | 345 kts | 245° |
| 2026-04-22 00:20 | 35.16531 | -114.53111 | 37826 ft | 345 kts | 245° |
| 2026-04-22 00:21 | 35.14650 | -114.58500 | 37818 ft | 345 kts | 244° |
| 2026-04-22 00:21 | 35.12782 | -114.63853 | 37820 ft | 345 kts | 245° |
| 2026-04-22 00:22 | 35.10913 | -114.69246 | 37821 ft | 345 kts | 245° |
| 2026-04-22 00:22 | 35.08787 | -114.74460 | 37825 ft | 343 kts | 229° |
| 2026-04-22 00:23 | 35.05393 | -114.78565 | 37799 ft | 344 kts | 225° |
| 2026-04-22 00:23 | 35.01909 | -114.82597 | 37810 ft | 346 kts | 225° |
| 2026-04-22 00:24 | 34.98411 | -114.86643 | 37834 ft | 347 kts | 225° |
| 2026-04-22 00:24 | 34.94910 | -114.90690 | 37836 ft | 347 kts | 225° |
| 2026-04-22 00:25 | 34.91404 | -114.94740 | 37837 ft | 348 kts | 225° |
| 2026-04-22 00:25 | 34.87890 | -114.98797 | 37840 ft | 348 kts | 225° |
| 2026-04-22 00:26 | 34.84406 | -115.02829 | 37862 ft | 348 kts | 225° |
| 2026-04-22 00:26 | 34.80907 | -115.06892 | 37852 ft | 348 kts | 225° |
| 2026-04-22 00:27 | 34.77403 | -115.10959 | 37858 ft | 348 kts | 225° |
| 2026-04-22 00:27 | 34.73895 | -115.15019 | 37846 ft | 348 kts | 225° |
| 2026-04-22 00:28 | 34.70380 | -115.19078 | 37846 ft | 348 kts | 225° |
| 2026-04-22 00:28 | 34.66866 | -115.23133 | 37847 ft | 349 kts | 225° |
| 2026-04-22 00:29 | 34.63348 | -115.27192 | 37798 ft | 348 kts | 225° |
| 2026-04-22 00:29 | 34.61594 | -115.29215 | 37281 ft | 348 kts | 225° |
| 2026-04-22 00:29 | 34.59839 | -115.31235 | 36711 ft | 348 kts | 225° |
| 2026-04-22 00:29 | 34.58082 | -115.33250 | 36198 ft | 347 kts | 226° |
| 2026-04-22 00:30 | 34.56325 | -115.35250 | 35704 ft | 345 kts | 226° |
| 2026-04-22 00:30 | 34.54636 | -115.37297 | 35225 ft | 341 kts | 233° |
| 2026-04-22 00:30 | 34.53506 | -115.39752 | 34727 ft | 339 kts | 249° |
| 2026-04-22 00:30 | 34.53035 | -115.42566 | 34202 ft | 343 kts | 258° |
| 2026-04-22 00:31 | 34.52734 | -115.45434 | 33596 ft | 343 kts | 258° |
| 2026-04-22 00:31 | 34.52441 | -115.48306 | 32934 ft | 344 kts | 258° |
| 2026-04-22 00:31 | 34.52147 | -115.51187 | 32236 ft | 345 kts | 258° |
| 2026-04-22 00:31 | 34.51848 | -115.54081 | 31538 ft | 347 kts | 258° |
| 2026-04-22 00:32 | 34.51545 | -115.56994 | 30818 ft | 349 kts | 258° |
| 2026-04-22 00:32 | 34.51239 | -115.59919 | 30091 ft | 351 kts | 258° |
| 2026-04-22 00:32 | 34.50928 | -115.62867 | 29244 ft | 354 kts | 258° |
| 2026-04-22 00:32 | 34.50607 | -115.65910 | 28370 ft | 357 kts | 258° |
| 2026-04-22 00:33 | 34.50296 | -115.68861 | 28002 ft | 359 kts | 258° |
| 2026-04-22 00:33 | 34.49977 | -115.71877 | 27865 ft | 362 kts | 258° |
| 2026-04-22 00:33 | 34.49654 | -115.74910 | 27892 ft | 363 kts | 258° |
| 2026-04-22 00:33 | 34.49332 | -115.77949 | 27902 ft | 364 kts | 258° |
| 2026-04-22 00:34 | 34.49010 | -115.80992 | 27905 ft | 364 kts | 258° |
| 2026-04-22 00:34 | 34.48687 | -115.84033 | 27904 ft | 364 kts | 258° |
| 2026-04-22 00:34 | 34.48362 | -115.87073 | 27906 ft | 364 kts | 258° |
| 2026-04-22 00:34 | 34.48032 | -115.90112 | 27914 ft | 364 kts | 258° |
| 2026-04-22 00:35 | 34.47701 | -115.93157 | 27914 ft | 365 kts | 258° |
| 2026-04-22 00:35 | 34.47371 | -115.96207 | 27916 ft | 365 kts | 258° |
| 2026-04-22 00:35 | 34.47043 | -115.99257 | 27915 ft | 365 kts | 259° |
| 2026-04-22 00:35 | 34.46824 | -116.01278 | 27925 ft | 364 kts | 258° |
| 2026-04-22 00:36 | 34.46380 | -116.05348 | 27923 ft | 364 kts | 258° |
| 2026-04-22 00:36 | 34.46159 | -116.07360 | 27924 ft | 364 kts | 258° |
| 2026-04-22 00:36 | 34.45410 | -116.14140 | 27930 ft | 364 kts | 258° |
| 2026-04-22 00:37 | 34.45076 | -116.17179 | 27992 ft | 364 kts | 258° |
| 2026-04-22 00:37 | 34.44743 | -116.20217 | 27988 ft | 364 kts | 259° |
| 2026-04-22 00:37 | 34.44410 | -116.23255 | 27987 ft | 364 kts | 258° |
| 2026-04-22 00:37 | 34.44079 | -116.26256 | 27920 ft | 364 kts | 258° |
| 2026-04-22 00:38 | 34.43742 | -116.29299 | 27938 ft | 365 kts | 259° |
| 2026-04-22 00:38 | 34.43403 | -116.32346 | 27938 ft | 365 kts | 258° |
| 2026-04-22 00:38 | 34.43063 | -116.35396 | 27936 ft | 365 kts | 258° |
| 2026-04-22 00:38 | 34.42722 | -116.38449 | 27941 ft | 366 kts | 258° |
| 2026-04-22 00:39 | 34.42379 | -116.41500 | 27941 ft | 365 kts | 258° |
| 2026-04-22 00:39 | 34.42038 | -116.44548 | 27942 ft | 365 kts | 258° |
| 2026-04-22 00:39 | 34.41563 | -116.47562 | 27936 ft | 363 kts | 251° |
| 2026-04-22 00:39 | 34.40602 | -116.50370 | 27946 ft | 361 kts | 243° |
| 2026-04-22 00:40 | 34.39479 | -116.53089 | 27952 ft | 361 kts | 243° |
| 2026-04-22 00:40 | 34.38355 | -116.55812 | 27952 ft | 361 kts | 243° |
| 2026-04-22 00:40 | 34.37233 | -116.58532 | 27946 ft | 362 kts | 243° |
| 2026-04-22 00:40 | 34.36106 | -116.61254 | 27950 ft | 362 kts | 243° |
| 2026-04-22 00:41 | 34.34979 | -116.63979 | 27972 ft | 362 kts | 243° |
| 2026-04-22 00:41 | 34.33851 | -116.66706 | 27972 ft | 362 kts | 243° |
| 2026-04-22 00:41 | 34.32727 | -116.69438 | 27781 ft | 363 kts | 244° |
| 2026-04-22 00:41 | 34.31613 | -116.72186 | 27524 ft | 364 kts | 244° |
| 2026-04-22 00:42 | 34.30508 | -116.74945 | 27289 ft | 364 kts | 244° |
| 2026-04-22 00:42 | 34.29403 | -116.77705 | 27038 ft | 365 kts | 244° |
| 2026-04-22 00:42 | 34.28295 | -116.80475 | 26787 ft | 367 kts | 244° |
| 2026-04-22 00:42 | 34.27181 | -116.83253 | 26536 ft | 368 kts | 244° |
| 2026-04-22 00:43 | 34.26062 | -116.86039 | 26256 ft | 369 kts | 244° |
| 2026-04-22 00:43 | 34.24932 | -116.88843 | 25770 ft | 369 kts | 244° |
| 2026-04-22 00:43 | 34.23811 | -116.91618 | 25204 ft | 369 kts | 244° |
| 2026-04-22 00:43 | 34.22681 | -116.94409 | 24643 ft | 371 kts | 244° |
| 2026-04-22 00:44 | 34.21544 | -116.97219 | 24090 ft | 374 kts | 244° |
| 2026-04-22 00:44 | 34.20598 | -117.00149 | 23539 ft | 376 kts | 251° |
| 2026-04-22 00:44 | 34.19782 | -117.03162 | 22908 ft | 378 kts | 251° |
| 2026-04-22 00:44 | 34.18965 | -117.06197 | 22337 ft | 381 kts | 251° |
| 2026-04-22 00:45 | 34.18145 | -117.09243 | 21766 ft | 379 kts | 251° |
| 2026-04-22 00:45 | 34.17321 | -117.12295 | 21568 ft | 350 kts | 251° |
| 2026-04-22 00:45 | 34.16622 | -117.14877 | 21443 ft | 326 kts | 251° |
| 2026-04-22 00:45 | 34.15936 | -117.17409 | 21222 ft | 305 kts | 251° |
| 2026-04-22 00:46 | 34.15292 | -117.19755 | 20827 ft | 293 kts | 251° |
| 2026-04-22 00:46 | 34.14655 | -117.22062 | 20199 ft | 288 kts | 251° |
| 2026-04-22 00:46 | 34.14026 | -117.24338 | 19535 ft | 284 kts | 251° |
| 2026-04-22 00:46 | 34.13394 | -117.26629 | 18865 ft | 283 kts | 251° |
| 2026-04-22 00:47 | 34.12775 | -117.28864 | 18242 ft | 280 kts | 251° |
| 2026-04-22 00:47 | 34.12157 | -117.31099 | 17589 ft | 276 kts | 250° |
| 2026-04-22 00:47 | 34.11552 | -117.33293 | 17141 ft | 273 kts | 250° |
| 2026-04-22 00:47 | 34.10953 | -117.35461 | 16727 ft | 272 kts | 250° |
| 2026-04-22 00:48 | 34.10356 | -117.37630 | 16319 ft | 272 kts | 251° |
| 2026-04-22 00:48 | 34.09793 | -117.39810 | 15901 ft | 273 kts | 251° |
| 2026-04-22 00:48 | 34.09248 | -117.42002 | 15483 ft | 273 kts | 251° |
| 2026-04-22 00:48 | 34.08708 | -117.44197 | 15071 ft | 273 kts | 251° |
| 2026-04-22 00:49 | 34.08169 | -117.46394 | 14711 ft | 272 kts | 251° |
| 2026-04-22 00:49 | 34.07623 | -117.48606 | 14335 ft | 271 kts | 252° |
| 2026-04-22 00:49 | 34.07078 | -117.50789 | 14070 ft | 266 kts | 251° |
| 2026-04-22 00:49 | 34.06521 | -117.52982 | 13661 ft | 266 kts | 251° |
| 2026-04-22 00:50 | 34.05983 | -117.55080 | 13251 ft | 265 kts | 251° |
| 2026-04-22 00:50 | 34.05439 | -117.57199 | 12843 ft | 264 kts | 251° |
| 2026-04-22 00:50 | 34.05071 | -117.58633 | 12565 ft | 264 kts | 251° |
| 2026-04-22 00:50 | 34.04531 | -117.60743 | 12167 ft | 263 kts | 251° |
| 2026-04-22 00:51 | 34.03937 | -117.63058 | 11737 ft | 263 kts | 250° |
| 2026-04-22 00:51 | 34.03271 | -117.65638 | 11242 ft | 263 kts | 250° |
| 2026-04-22 00:51 | 34.02905 | -117.67058 | 10968 ft | 262 kts | 250° |
| 2026-04-22 00:51 | 34.02221 | -117.69843 | 10440 ft | 262 kts | 255° |
| 2026-04-22 00:52 | 34.02050 | -117.71316 | 10269 ft | 261 kts | 260° |
| 2026-04-22 00:52 | 34.01856 | -117.73455 | 10140 ft | 261 kts | 259° |
| 2026-04-22 00:52 | 34.01642 | -117.75663 | 10028 ft | 260 kts | 259° |
| 2026-04-22 00:52 | 34.01428 | -117.77818 | 10005 ft | 261 kts | 259° |
| 2026-04-22 00:53 | 34.01212 | -117.79988 | 10007 ft | 261 kts | 259° |
| 2026-04-22 00:53 | 34.01003 | -117.82129 | 10010 ft | 261 kts | 259° |
| 2026-04-22 00:53 | 34.00793 | -117.84297 | 9662 ft | 259 kts | 259° |
| 2026-04-22 00:53 | 34.00565 | -117.86603 | 8838 ft | 260 kts | 259° |
| 2026-04-22 00:54 | 34.00365 | -117.88625 | 8155 ft | 260 kts | 260° |
| 2026-04-22 00:54 | 34.00155 | -117.90810 | 7736 ft | 248 kts | 260° |
| 2026-04-22 00:54 | 33.99968 | -117.92768 | 7438 ft | 235 kts | 260° |
| 2026-04-22 00:54 | 33.99784 | -117.94667 | 7152 ft | 222 kts | 260° |
| 2026-04-22 00:55 | 33.99610 | -117.96464 | 6879 ft | 211 kts | 260° |
| 2026-04-22 00:55 | 33.99436 | -117.98254 | 6620 ft | 199 kts | 259° |
| 2026-04-22 00:55 | 33.99104 | -118.01456 | 6142 ft | 200 kts | 259° |
| 2026-04-22 00:56 | 33.98931 | -118.03182 | 5890 ft | 200 kts | 260° |
| 2026-04-22 00:56 | 33.98768 | -118.04814 | 5625 ft | 200 kts | 261° |
| 2026-04-22 00:56 | 33.98607 | -118.06439 | 5382 ft | 199 kts | 260° |
| 2026-04-22 00:56 | 33.98402 | -118.08492 | 5074 ft | 199 kts | 261° |
| 2026-04-22 00:57 | 33.98268 | -118.09836 | 5062 ft | 199 kts | 262° |
| 2026-04-22 00:57 | 33.98092 | -118.11603 | 4803 ft | 202 kts | 262° |
| 2026-04-22 00:57 | 33.97942 | -118.13129 | 4557 ft | 200 kts | 262° |
| 2026-04-22 00:57 | 33.97777 | -118.14777 | 4290 ft | 198 kts | 262° |
| 2026-04-22 00:58 | 33.97667 | -118.15868 | 4124 ft | 198 kts | 262° |
| 2026-04-22 00:58 | 33.97447 | -118.18064 | 3767 ft | 196 kts | 262° |
| 2026-04-22 00:58 | 33.97284 | -118.19688 | 3456 ft | 196 kts | 262° |
| 2026-04-22 00:58 | 33.97116 | -118.21363 | 3253 ft | 204 kts | 263° |
| 2026-04-22 00:59 | 33.96946 | -118.23054 | 2975 ft | 203 kts | 263° |
| 2026-04-22 00:59 | 33.96777 | -118.24740 | 2691 ft | 202 kts | 263° |
| 2026-04-22 00:59 | 33.96608 | -118.26411 | 2425 ft | 201 kts | 262° |
| 2026-04-22 00:59 | 33.96440 | -118.28078 | 2159 ft | 199 kts | 262° |
| 2026-04-22 01:00 | 33.96279 | -118.29684 | 1892 ft | 188 kts | 263° |
| 2026-04-22 01:00 | 33.96126 | -118.31186 | 1676 ft | 174 kts | 262° |
| 2026-04-22 01:00 | 33.95967 | -118.32764 | 1405 ft | 158 kts | 262° |
| 2026-04-22 01:00 | 33.95856 | -118.33867 | 1220 ft | 152 kts | 262° |
| 2026-04-22 01:01 | 33.95733 | -118.35051 | 1035 ft | 133 kts | 262° |
| 2026-04-22 01:01 | 33.95628 | -118.36100 | 861 ft | 121 kts | 263° |
| 2026-04-22 01:01 | 33.95526 | -118.37090 | 689 ft | 118 kts | 261° |
| 2026-04-22 01:01 | 33.95429 | -118.38049 | 546 ft | 115 kts | 262° |
| 2026-04-22 01:02 | 33.95332 | -118.39019 | 352 ft | 118 kts | 262° |
| 2026-04-22 01:02 | 33.95231 | -118.39994 | 178 ft | 113 kts | 261° |
| 2026-04-22 01:02 | 33.95142 | -118.40875 | 94 ft | 97 kts | 260° |
| 2026-04-22 01:02 | 33.95084 | -118.41426 | 94 ft | 30 kts | 263° |
| 2026-04-22 01:03 | 33.95061 | -118.41651 | 95 ft | 28 kts | 263° |
| 2026-04-22 01:03 | 33.95038 | -118.41887 | 94 ft | 27 kts | 263° |
| 2026-04-22 01:03 | 33.94998 | -118.42100 | 94 ft | 26 kts | 245° |
| 2026-04-22 01:03 | 33.94899 | -118.42242 | 96 ft | 18 kts | 222° |
| 2026-04-22 01:04 | 33.94781 | -118.42282 | 96 ft | 19 kts | 178° |
| 2026-04-22 01:04 | 33.94691 | -118.42249 | 94 ft | 8 kts | 129° |
| 2026-04-22 01:04 | 33.94686 | -118.42175 | 97 ft | 9 kts | 84° |
| 2026-04-22 01:04 | 33.94697 | -118.42092 | 95 ft | 11 kts | 81° |
| 2026-04-22 01:05 | 33.94708 | -118.41995 | 94 ft | 12 kts | 84° |
| 2026-04-22 01:05 | 33.94718 | -118.41887 | 93 ft | 14 kts | 83° |
| 2026-04-22 01:05 | 33.94729 | -118.41768 | 94 ft | 15 kts | 83° |
| 2026-04-22 01:05 | 33.94742 | -118.41641 | 94 ft | 16 kts | 83° |
| 2026-04-22 01:06 | 33.94756 | -118.41507 | 94 ft | 16 kts | 83° |
| 2026-04-22 01:06 | 33.94779 | -118.41368 | 94 ft | 17 kts | 73° |
| 2026-04-22 01:06 | 33.94798 | -118.41223 | 94 ft | 17 kts | 83° |
| 2026-04-22 01:06 | 33.94813 | -118.41082 | 97 ft | 17 kts | 83° |
| 2026-04-22 01:07 | 33.94828 | -118.40932 | 95 ft | 18 kts | 83° |
| 2026-04-22 01:07 | 33.94845 | -118.40773 | 95 ft | 20 kts | 82° |
| 2026-04-22 01:07 | 33.94859 | -118.40633 | 94 ft | 9 kts | 89° |
| 2026-04-22 01:07 | 33.94805 | -118.40585 | 94 ft | 11 kts | 155° |
| 2026-04-22 01:08 | 33.94777 | -118.40569 | 95 ft | 3 kts | 169° |
| 2026-04-22 01:08 | 33.94750 | -118.40563 | 95 ft | 5 kts | 169° |
| 2026-04-22 01:08 | 33.94709 | -118.40557 | 95 ft | 7 kts | 173° |
| 2026-04-22 01:08 | 33.94662 | -118.40550 | 95 ft | 3 kts | 171° |
| 2026-04-22 01:09 | 33.94658 | -118.40549 | 93 ft | 0 kts | 165° |
| 2026-04-22 01:09 | 33.94659 | -118.40540 | 93 ft | 1 kts | 95° |
| 2026-04-22 01:09 | 33.94657 | -118.40526 | 94 ft | 4 kts | 96° |
| 2026-04-22 01:09 | 33.94654 | -118.40488 | 93 ft | 0 kts | 96° |
| 2026-04-22 01:10 | 33.94654 | -118.40487 | 93 ft | 0 kts | 96° |